sensor_id;sensor_type;location;lat;lon;timestamp;P1;durP1;ratioP1;P2;durP2;ratioP2
17727;SDS011;8984;49.268;12.302;2024-03-08T00:00:19;30.30;;;19.00;;
17727;SDS011;8984;49.268;12.302;2024-03-08T00:02:52;33.40;;;20.50;;
17727;SDS011;8984;49.268;12.302;2024-03-08T00:05:20;28.17;;;19.83;;
17727;SDS011;8984;49.268;12.302;2024-03-08T00:07:53;31.67;;;19.63;;
17727;SDS011;8984;49.268;12.302;2024-03-08T00:10:26;34.50;;;21.50;;
17727;SDS011;8984;49.268;12.302;2024-03-08T00:13:06;30.17;;;20.87;;
17727;SDS011;8984;49.268;12.302;2024-03-08T00:15:33;31.00;;;19.80;;
17727;SDS011;8984;49.268;12.302;2024-03-08T00:18:07;30.73;;;20.10;;
17727;SDS011;8984;49.268;12.302;2024-03-08T00:20:38;30.67;;;19.80;;
17727;SDS011;8984;49.268;12.302;2024-03-08T00:23:09;32.50;;;20.93;;
17727;SDS011;8984;49.268;12.302;2024-03-08T00:26:01;30.70;;;20.10;;
17727;SDS011;8984;49.268;12.302;2024-03-08T00:28:31;31.77;;;21.47;;
17727;SDS011;8984;49.268;12.302;2024-03-08T00:31:05;33.20;;;21.03;;
17727;SDS011;8984;49.268;12.302;2024-03-08T00:33:50;32.20;;;21.23;;
17727;SDS011;8984;49.268;12.302;2024-03-08T00:36:24;33.97;;;21.93;;
17727;SDS011;8984;49.268;12.302;2024-03-08T00:38:53;33.47;;;21.13;;
17727;SDS011;8984;49.268;12.302;2024-03-08T00:41:21;29.73;;;19.33;;
17727;SDS011;8984;49.268;12.302;2024-03-08T00:43:57;32.10;;;19.70;;
17727;SDS011;8984;49.268;12.302;2024-03-08T00:46:25;30.70;;;19.60;;
17727;SDS011;8984;49.268;12.302;2024-03-08T00:48:58;36.63;;;22.80;;
17727;SDS011;8984;49.268;12.302;2024-03-08T00:51:26;32.23;;;20.97;;
17727;SDS011;8984;49.268;12.302;2024-03-08T00:53:58;28.93;;;19.57;;
17727;SDS011;8984;49.268;12.302;2024-03-08T00:56:31;25.77;;;17.87;;
17727;SDS011;8984;49.268;12.302;2024-03-08T00:59:04;29.60;;;18.97;;
17727;SDS011;8984;49.268;12.302;2024-03-08T01:01:36;29.50;;;18.33;;
17727;SDS011;8984;49.268;12.302;2024-03-08T01:04:07;31.17;;;20.03;;
17727;SDS011;8984;49.268;12.302;2024-03-08T01:06:43;32.83;;;19.67;;
17727;SDS011;8984;49.268;12.302;2024-03-08T01:09:12;32.10;;;20.63;;
17727;SDS011;8984;49.268;12.302;2024-03-08T01:11:42;29.93;;;19.23;;
17727;SDS011;8984;49.268;12.302;2024-03-08T01:14:11;30.13;;;19.13;;
17727;SDS011;8984;49.268;12.302;2024-03-08T01:16:40;27.93;;;18.60;;
17727;SDS011;8984;49.268;12.302;2024-03-08T01:19:17;25.07;;;17.60;;
17727;SDS011;8984;49.268;12.302;2024-03-08T01:21:50;30.47;;;18.73;;
17727;SDS011;8984;49.268;12.302;2024-03-08T01:24:19;28.40;;;19.23;;
17727;SDS011;8984;49.268;12.302;2024-03-08T01:26:46;27.60;;;17.80;;
17727;SDS011;8984;49.268;12.302;2024-03-08T01:29:16;27.53;;;18.13;;
17727;SDS011;8984;49.268;12.302;2024-03-08T01:31:46;28.90;;;18.50;;
17727;SDS011;8984;49.268;12.302;2024-03-08T01:34:19;26.40;;;18.57;;
17727;SDS011;8984;49.268;12.302;2024-03-08T01:36:49;29.30;;;19.87;;
17727;SDS011;8984;49.268;12.302;2024-03-08T01:39:19;26.40;;;18.27;;
17727;SDS011;8984;49.268;12.302;2024-03-08T01:41:47;28.57;;;19.17;;
17727;SDS011;8984;49.268;12.302;2024-03-08T01:44:16;29.27;;;19.50;;
17727;SDS011;8984;49.268;12.302;2024-03-08T01:46:45;31.40;;;20.60;;
17727;SDS011;8984;49.268;12.302;2024-03-08T01:49:19;33.57;;;21.97;;
17727;SDS011;8984;49.268;12.302;2024-03-08T01:51:50;30.47;;;20.10;;
17727;SDS011;8984;49.268;12.302;2024-03-08T01:54:19;34.40;;;19.97;;
17727;SDS011;8984;49.268;12.302;2024-03-08T01:56:47;28.20;;;19.00;;
17727;SDS011;8984;49.268;12.302;2024-03-08T01:59:24;28.03;;;19.77;;
17727;SDS011;8984;49.268;12.302;2024-03-08T02:01:54;34.47;;;22.77;;
17727;SDS011;8984;49.268;12.302;2024-03-08T02:04:30;30.77;;;20.23;;
17727;SDS011;8984;49.268;12.302;2024-03-08T02:07:01;30.30;;;20.87;;
17727;SDS011;8984;49.268;12.302;2024-03-08T02:09:30;34.10;;;21.03;;
17727;SDS011;8984;49.268;12.302;2024-03-08T02:12:02;32.80;;;20.97;;
17727;SDS011;8984;49.268;12.302;2024-03-08T02:14:50;32.27;;;20.03;;
17727;SDS011;8984;49.268;12.302;2024-03-08T02:17:27;31.93;;;22.30;;
17727;SDS011;8984;49.268;12.302;2024-03-08T02:20:16;33.27;;;21.53;;
17727;SDS011;8984;49.268;12.302;2024-03-08T02:25:31;32.10;;;21.77;;
17727;SDS011;8984;49.268;12.302;2024-03-08T02:28:00;36.13;;;23.73;;
17727;SDS011;8984;49.268;12.302;2024-03-08T02:30:30;30.50;;;20.43;;
17727;SDS011;8984;49.268;12.302;2024-03-08T02:33:33;31.53;;;19.90;;
17727;SDS011;8984;49.268;12.302;2024-03-08T02:36:02;29.43;;;19.83;;
17727;SDS011;8984;49.268;12.302;2024-03-08T02:38:36;30.70;;;20.77;;
17727;SDS011;8984;49.268;12.302;2024-03-08T02:41:17;29.77;;;20.10;;
17727;SDS011;8984;49.268;12.302;2024-03-08T02:44:00;29.47;;;20.73;;
17727;SDS011;8984;49.268;12.302;2024-03-08T02:46:29;28.80;;;19.60;;
17727;SDS011;8984;49.268;12.302;2024-03-08T02:48:59;30.90;;;19.87;;
17727;SDS011;8984;49.268;12.302;2024-03-08T02:51:42;29.93;;;19.43;;
17727;SDS011;8984;49.268;12.302;2024-03-08T02:54:15;29.33;;;19.20;;
17727;SDS011;8984;49.268;12.302;2024-03-08T02:56:56;32.17;;;20.40;;
17727;SDS011;8984;49.268;12.302;2024-03-08T02:59:28;31.20;;;21.10;;
17727;SDS011;8984;49.268;12.302;2024-03-08T03:01:58;31.20;;;19.20;;
17727;SDS011;8984;49.268;12.302;2024-03-08T03:04:28;28.40;;;19.43;;
17727;SDS011;8984;49.268;12.302;2024-03-08T03:06:59;30.30;;;20.40;;
17727;SDS011;8984;49.268;12.302;2024-03-08T03:12:37;28.83;;;19.57;;
17727;SDS011;8984;49.268;12.302;2024-03-08T03:15:04;30.87;;;20.77;;
17727;SDS011;8984;49.268;12.302;2024-03-08T03:17:31;32.20;;;20.13;;
17727;SDS011;8984;49.268;12.302;2024-03-08T03:19:58;28.10;;;20.00;;
17727;SDS011;8984;49.268;12.302;2024-03-08T03:22:28;29.47;;;20.63;;
17727;SDS011;8984;49.268;12.302;2024-03-08T03:24:55;32.93;;;21.00;;
17727;SDS011;8984;49.268;12.302;2024-03-08T03:27:23;31.17;;;20.73;;
17727;SDS011;8984;49.268;12.302;2024-03-08T03:29:51;29.53;;;20.33;;
17727;SDS011;8984;49.268;12.302;2024-03-08T03:32:18;29.73;;;20.73;;
17727;SDS011;8984;49.268;12.302;2024-03-08T03:34:45;31.47;;;20.83;;
17727;SDS011;8984;49.268;12.302;2024-03-08T03:37:11;30.80;;;21.73;;
17727;SDS011;8984;49.268;12.302;2024-03-08T03:39:38;32.13;;;21.43;;
17727;SDS011;8984;49.268;12.302;2024-03-08T03:42:13;32.77;;;19.50;;
17727;SDS011;8984;49.268;12.302;2024-03-08T03:44:41;31.37;;;20.53;;
17727;SDS011;8984;49.268;12.302;2024-03-08T03:47:10;28.77;;;19.60;;
17727;SDS011;8984;49.268;12.302;2024-03-08T03:49:37;28.80;;;20.30;;
17727;SDS011;8984;49.268;12.302;2024-03-08T03:52:04;32.53;;;20.23;;
17727;SDS011;8984;49.268;12.302;2024-03-08T03:54:31;32.17;;;23.07;;
17727;SDS011;8984;49.268;12.302;2024-03-08T03:56:58;32.00;;;21.33;;
17727;SDS011;8984;49.268;12.302;2024-03-08T03:59:25;27.83;;;18.63;;
17727;SDS011;8984;49.268;12.302;2024-03-08T04:01:53;34.60;;;21.87;;
17727;SDS011;8984;49.268;12.302;2024-03-08T04:04:21;28.63;;;20.53;;
17727;SDS011;8984;49.268;12.302;2024-03-08T04:06:49;32.57;;;21.73;;
17727;SDS011;8984;49.268;12.302;2024-03-08T04:09:16;33.67;;;20.93;;
17727;SDS011;8984;49.268;12.302;2024-03-08T04:11:44;31.37;;;20.13;;
17727;SDS011;8984;49.268;12.302;2024-03-08T04:14:11;29.80;;;20.67;;
17727;SDS011;8984;49.268;12.302;2024-03-08T04:16:38;29.67;;;19.77;;
17727;SDS011;8984;49.268;12.302;2024-03-08T04:19:05;27.63;;;18.87;;
17727;SDS011;8984;49.268;12.302;2024-03-08T04:21:33;31.67;;;21.27;;
17727;SDS011;8984;49.268;12.302;2024-03-08T04:24:00;32.37;;;19.87;;
17727;SDS011;8984;49.268;12.302;2024-03-08T04:26:27;29.63;;;20.30;;
17727;SDS011;8984;49.268;12.302;2024-03-08T04:28:53;29.80;;;19.87;;
17727;SDS011;8984;49.268;12.302;2024-03-08T04:31:20;28.10;;;18.93;;
17727;SDS011;8984;49.268;12.302;2024-03-08T04:33:47;28.73;;;18.67;;
17727;SDS011;8984;49.268;12.302;2024-03-08T04:36:14;29.37;;;20.27;;
17727;SDS011;8984;49.268;12.302;2024-03-08T04:38:43;38.10;;;21.40;;
17727;SDS011;8984;49.268;12.302;2024-03-08T04:41:10;30.23;;;20.23;;
17727;SDS011;8984;49.268;12.302;2024-03-08T04:43:37;29.57;;;20.53;;
17727;SDS011;8984;49.268;12.302;2024-03-08T04:46:05;30.37;;;20.03;;
17727;SDS011;8984;49.268;12.302;2024-03-08T04:48:31;25.17;;;17.80;;
17727;SDS011;8984;49.268;12.302;2024-03-08T04:50:59;26.53;;;18.23;;
17727;SDS011;8984;49.268;12.302;2024-03-08T04:53:26;28.40;;;19.03;;
17727;SDS011;8984;49.268;12.302;2024-03-08T04:55:55;28.13;;;19.10;;
17727;SDS011;8984;49.268;12.302;2024-03-08T04:58:23;33.27;;;22.70;;
17727;SDS011;8984;49.268;12.302;2024-03-08T05:00:49;29.70;;;19.60;;
17727;SDS011;8984;49.268;12.302;2024-03-08T05:03:16;32.93;;;21.90;;
17727;SDS011;8984;49.268;12.302;2024-03-08T05:05:43;40.87;;;29.63;;
17727;SDS011;8984;49.268;12.302;2024-03-08T05:08:10;37.00;;;24.07;;
17727;SDS011;8984;49.268;12.302;2024-03-08T05:10:37;29.77;;;20.67;;
17727;SDS011;8984;49.268;12.302;2024-03-08T05:13:05;34.20;;;23.07;;
17727;SDS011;8984;49.268;12.302;2024-03-08T05:15:31;34.60;;;21.53;;
17727;SDS011;8984;49.268;12.302;2024-03-08T05:18:00;31.40;;;19.83;;
17727;SDS011;8984;49.268;12.302;2024-03-08T05:20:26;30.80;;;20.30;;
17727;SDS011;8984;49.268;12.302;2024-03-08T05:22:53;29.70;;;19.60;;
17727;SDS011;8984;49.268;12.302;2024-03-08T05:25:20;26.33;;;18.97;;
17727;SDS011;8984;49.268;12.302;2024-03-08T05:27:47;32.27;;;22.43;;
17727;SDS011;8984;49.268;12.302;2024-03-08T05:30:15;34.23;;;21.80;;
17727;SDS011;8984;49.268;12.302;2024-03-08T05:32:42;37.77;;;25.77;;
17727;SDS011;8984;49.268;12.302;2024-03-08T05:35:10;34.80;;;26.47;;
17727;SDS011;8984;49.268;12.302;2024-03-08T05:37:37;32.13;;;23.33;;
17727;SDS011;8984;49.268;12.302;2024-03-08T05:40:05;33.30;;;22.13;;
17727;SDS011;8984;49.268;12.302;2024-03-08T05:42:34;36.13;;;25.47;;
17727;SDS011;8984;49.268;12.302;2024-03-08T05:45:02;38.13;;;27.23;;
17727;SDS011;8984;49.268;12.302;2024-03-08T05:47:31;31.87;;;20.83;;
17727;SDS011;8984;49.268;12.302;2024-03-08T05:49:57;34.53;;;23.63;;
17727;SDS011;8984;49.268;12.302;2024-03-08T05:52:24;39.07;;;27.23;;
17727;SDS011;8984;49.268;12.302;2024-03-08T05:54:52;41.40;;;26.83;;
17727;SDS011;8984;49.268;12.302;2024-03-08T05:57:18;38.67;;;24.77;;
17727;SDS011;8984;49.268;12.302;2024-03-08T05:59:47;29.80;;;21.23;;
17727;SDS011;8984;49.268;12.302;2024-03-08T06:02:14;34.53;;;22.60;;
17727;SDS011;8984;49.268;12.302;2024-03-08T06:04:45;30.80;;;21.10;;
17727;SDS011;8984;49.268;12.302;2024-03-08T06:07:13;34.63;;;22.70;;
17727;SDS011;8984;49.268;12.302;2024-03-08T06:09:39;34.57;;;21.70;;
17727;SDS011;8984;49.268;12.302;2024-03-08T06:12:10;34.20;;;22.67;;
17727;SDS011;8984;49.268;12.302;2024-03-08T06:14:37;39.13;;;29.80;;
17727;SDS011;8984;49.268;12.302;2024-03-08T06:17:04;34.87;;;24.00;;
17727;SDS011;8984;49.268;12.302;2024-03-08T06:19:32;34.27;;;22.13;;
17727;SDS011;8984;49.268;12.302;2024-03-08T06:22:00;33.83;;;21.37;;
17727;SDS011;8984;49.268;12.302;2024-03-08T06:24:30;35.33;;;22.67;;
17727;SDS011;8984;49.268;12.302;2024-03-08T06:26:57;32.77;;;20.50;;
17727;SDS011;8984;49.268;12.302;2024-03-08T06:29:24;34.07;;;21.83;;
17727;SDS011;8984;49.268;12.302;2024-03-08T06:31:51;31.07;;;20.23;;
17727;SDS011;8984;49.268;12.302;2024-03-08T06:34:18;32.73;;;20.37;;
17727;SDS011;8984;49.268;12.302;2024-03-08T06:36:45;31.30;;;21.30;;
17727;SDS011;8984;49.268;12.302;2024-03-08T06:39:13;31.20;;;20.53;;
17727;SDS011;8984;49.268;12.302;2024-03-08T06:41:40;28.87;;;20.07;;
17727;SDS011;8984;49.268;12.302;2024-03-08T06:44:09;29.90;;;20.27;;
17727;SDS011;8984;49.268;12.302;2024-03-08T06:46:36;31.40;;;20.57;;
17727;SDS011;8984;49.268;12.302;2024-03-08T06:49:03;26.93;;;19.97;;
17727;SDS011;8984;49.268;12.302;2024-03-08T06:51:30;29.27;;;19.80;;
17727;SDS011;8984;49.268;12.302;2024-03-08T06:53:57;30.83;;;20.03;;
17727;SDS011;8984;49.268;12.302;2024-03-08T06:56:25;35.90;;;22.37;;
17727;SDS011;8984;49.268;12.302;2024-03-08T06:58:52;41.97;;;25.77;;
17727;SDS011;8984;49.268;12.302;2024-03-08T07:01:20;42.10;;;25.43;;
17727;SDS011;8984;49.268;12.302;2024-03-08T07:03:47;42.07;;;25.63;;
17727;SDS011;8984;49.268;12.302;2024-03-08T07:06:13;64.23;;;38.57;;
17727;SDS011;8984;49.268;12.302;2024-03-08T07:08:44;44.17;;;26.70;;
17727;SDS011;8984;49.268;12.302;2024-03-08T07:11:11;40.57;;;24.97;;
17727;SDS011;8984;49.268;12.302;2024-03-08T07:13:44;36.53;;;24.77;;
17727;SDS011;8984;49.268;12.302;2024-03-08T07:16:11;41.00;;;27.10;;
17727;SDS011;8984;49.268;12.302;2024-03-08T07:18:38;42.13;;;25.30;;
17727;SDS011;8984;49.268;12.302;2024-03-08T07:21:08;38.07;;;23.27;;
17727;SDS011;8984;49.268;12.302;2024-03-08T07:23:35;30.63;;;21.57;;
17727;SDS011;8984;49.268;12.302;2024-03-08T07:26:27;33.40;;;23.80;;
17727;SDS011;8984;49.268;12.302;2024-03-08T07:28:56;36.20;;;23.40;;
17727;SDS011;8984;49.268;12.302;2024-03-08T07:31:25;39.20;;;21.93;;
17727;SDS011;8984;49.268;12.302;2024-03-08T07:34:03;40.80;;;28.40;;
17727;SDS011;8984;49.268;12.302;2024-03-08T07:36:32;38.17;;;26.37;;
17727;SDS011;8984;49.268;12.302;2024-03-08T07:38:59;35.17;;;24.40;;
17727;SDS011;8984;49.268;12.302;2024-03-08T07:41:26;39.57;;;27.60;;
17727;SDS011;8984;49.268;12.302;2024-03-08T07:43:54;36.43;;;26.30;;
17727;SDS011;8984;49.268;12.302;2024-03-08T07:46:22;37.50;;;24.50;;
17727;SDS011;8984;49.268;12.302;2024-03-08T07:48:49;32.40;;;22.57;;
17727;SDS011;8984;49.268;12.302;2024-03-08T07:51:16;31.83;;;20.73;;
17727;SDS011;8984;49.268;12.302;2024-03-08T07:53:43;34.40;;;22.73;;
17727;SDS011;8984;49.268;12.302;2024-03-08T07:56:10;34.10;;;22.07;;
17727;SDS011;8984;49.268;12.302;2024-03-08T07:58:38;34.60;;;22.57;;
17727;SDS011;8984;49.268;12.302;2024-03-08T08:01:06;29.00;;;19.83;;
17727;SDS011;8984;49.268;12.302;2024-03-08T08:03:35;31.27;;;21.30;;
17727;SDS011;8984;49.268;12.302;2024-03-08T08:06:03;29.47;;;20.03;;
17727;SDS011;8984;49.268;12.302;2024-03-08T08:08:30;31.93;;;20.67;;
17727;SDS011;8984;49.268;12.302;2024-03-08T08:10:57;30.30;;;19.57;;
17727;SDS011;8984;49.268;12.302;2024-03-08T08:13:24;33.60;;;20.77;;
17727;SDS011;8984;49.268;12.302;2024-03-08T08:15:52;30.87;;;19.80;;
17727;SDS011;8984;49.268;12.302;2024-03-08T08:18:19;29.67;;;19.77;;
17727;SDS011;8984;49.268;12.302;2024-03-08T08:20:51;32.73;;;19.40;;
17727;SDS011;8984;49.268;12.302;2024-03-08T08:23:18;30.17;;;19.43;;
17727;SDS011;8984;49.268;12.302;2024-03-08T08:25:45;30.10;;;19.27;;
17727;SDS011;8984;49.268;12.302;2024-03-08T08:28:15;26.27;;;17.63;;
17727;SDS011;8984;49.268;12.302;2024-03-08T08:30:42;27.63;;;17.93;;
17727;SDS011;8984;49.268;12.302;2024-03-08T08:33:09;29.53;;;18.53;;
17727;SDS011;8984;49.268;12.302;2024-03-08T08:35:36;26.53;;;17.23;;
17727;SDS011;8984;49.268;12.302;2024-03-08T08:38:05;26.53;;;16.93;;
17727;SDS011;8984;49.268;12.302;2024-03-08T08:40:34;26.30;;;17.10;;
17727;SDS011;8984;49.268;12.302;2024-03-08T08:43:01;27.97;;;17.83;;
17727;SDS011;8984;49.268;12.302;2024-03-08T08:45:29;28.93;;;17.77;;
17727;SDS011;8984;49.268;12.302;2024-03-08T08:47:56;23.20;;;16.23;;
17727;SDS011;8984;49.268;12.302;2024-03-08T08:50:24;25.60;;;16.43;;
17727;SDS011;8984;49.268;12.302;2024-03-08T08:52:53;24.80;;;15.93;;
17727;SDS011;8984;49.268;12.302;2024-03-08T08:55:21;23.57;;;15.83;;
17727;SDS011;8984;49.268;12.302;2024-03-08T08:57:50;24.57;;;15.93;;
17727;SDS011;8984;49.268;12.302;2024-03-08T09:00:18;27.67;;;16.43;;
17727;SDS011;8984;49.268;12.302;2024-03-08T09:02:45;26.60;;;16.37;;
17727;SDS011;8984;49.268;12.302;2024-03-08T09:05:13;24.33;;;15.37;;
17727;SDS011;8984;49.268;12.302;2024-03-08T09:07:42;23.87;;;14.57;;
17727;SDS011;8984;49.268;12.302;2024-03-08T09:10:09;22.77;;;15.33;;
17727;SDS011;8984;49.268;12.302;2024-03-08T09:12:39;24.07;;;15.30;;
17727;SDS011;8984;49.268;12.302;2024-03-08T09:15:06;22.93;;;15.50;;
17727;SDS011;8984;49.268;12.302;2024-03-08T09:17:36;24.60;;;15.87;;
17727;SDS011;8984;49.268;12.302;2024-03-08T09:20:05;24.83;;;16.87;;
17727;SDS011;8984;49.268;12.302;2024-03-08T09:22:32;24.23;;;15.67;;
17727;SDS011;8984;49.268;12.302;2024-03-08T09:24:59;23.47;;;15.97;;
17727;SDS011;8984;49.268;12.302;2024-03-08T09:27:26;22.63;;;15.17;;
17727;SDS011;8984;49.268;12.302;2024-03-08T09:29:54;25.17;;;15.13;;
17727;SDS011;8984;49.268;12.302;2024-03-08T09:32:21;22.80;;;14.90;;
17727;SDS011;8984;49.268;12.302;2024-03-08T09:34:48;20.83;;;14.13;;
17727;SDS011;8984;49.268;12.302;2024-03-08T09:37:15;23.30;;;15.30;;
17727;SDS011;8984;49.268;12.302;2024-03-08T09:39:42;23.17;;;15.50;;
17727;SDS011;8984;49.268;12.302;2024-03-08T09:42:09;19.97;;;13.67;;
17727;SDS011;8984;49.268;12.302;2024-03-08T09:44:39;21.37;;;13.90;;
17727;SDS011;8984;49.268;12.302;2024-03-08T09:47:12;20.40;;;13.70;;
17727;SDS011;8984;49.268;12.302;2024-03-08T09:49:40;22.07;;;15.13;;
17727;SDS011;8984;49.268;12.302;2024-03-08T09:52:08;19.73;;;13.87;;
17727;SDS011;8984;49.268;12.302;2024-03-08T09:54:37;18.27;;;12.83;;
17727;SDS011;8984;49.268;12.302;2024-03-08T09:57:05;19.93;;;12.80;;
17727;SDS011;8984;49.268;12.302;2024-03-08T09:59:34;18.37;;;12.80;;
17727;SDS011;8984;49.268;12.302;2024-03-08T10:02:15;18.87;;;13.20;;
17727;SDS011;8984;49.268;12.302;2024-03-08T10:04:42;19.07;;;12.67;;
17727;SDS011;8984;49.268;12.302;2024-03-08T10:07:11;18.10;;;12.57;;
17727;SDS011;8984;49.268;12.302;2024-03-08T10:09:39;17.47;;;12.17;;
17727;SDS011;8984;49.268;12.302;2024-03-08T10:12:07;18.13;;;12.50;;
17727;SDS011;8984;49.268;12.302;2024-03-08T10:14:38;15.93;;;12.07;;
17727;SDS011;8984;49.268;12.302;2024-03-08T10:17:06;19.03;;;12.03;;
17727;SDS011;8984;49.268;12.302;2024-03-08T10:19:34;20.27;;;13.13;;
17727;SDS011;8984;49.268;12.302;2024-03-08T10:22:01;16.73;;;11.90;;
17727;SDS011;8984;49.268;12.302;2024-03-08T10:24:29;17.53;;;12.40;;
17727;SDS011;8984;49.268;12.302;2024-03-08T10:26:58;15.47;;;10.57;;
17727;SDS011;8984;49.268;12.302;2024-03-08T10:29:29;17.97;;;12.23;;
17727;SDS011;8984;49.268;12.302;2024-03-08T10:31:56;16.83;;;11.43;;
17727;SDS011;8984;49.268;12.302;2024-03-08T10:34:23;16.43;;;11.37;;
17727;SDS011;8984;49.268;12.302;2024-03-08T10:36:53;17.43;;;12.37;;
17727;SDS011;8984;49.268;12.302;2024-03-08T10:39:24;16.73;;;11.17;;
17727;SDS011;8984;49.268;12.302;2024-03-08T10:41:56;14.13;;;10.50;;
17727;SDS011;8984;49.268;12.302;2024-03-08T10:44:32;13.77;;;10.40;;
17727;SDS011;8984;49.268;12.302;2024-03-08T10:47:12;15.67;;;10.93;;
17727;SDS011;8984;49.268;12.302;2024-03-08T10:49:47;14.93;;;10.73;;
17727;SDS011;8984;49.268;12.302;2024-03-08T10:52:20;16.23;;;10.03;;
17727;SDS011;8984;49.268;12.302;2024-03-08T10:54:48;11.50;;;9.40;;
17727;SDS011;8984;49.268;12.302;2024-03-08T10:57:17;12.53;;;9.37;;
17727;SDS011;8984;49.268;12.302;2024-03-08T10:59:45;11.30;;;8.83;;
17727;SDS011;8984;49.268;12.302;2024-03-08T11:02:15;10.93;;;8.47;;
17727;SDS011;8984;49.268;12.302;2024-03-08T11:04:47;13.93;;;8.97;;
17727;SDS011;8984;49.268;12.302;2024-03-08T11:07:14;10.67;;;7.97;;
17727;SDS011;8984;49.268;12.302;2024-03-08T11:09:46;10.77;;;8.40;;
17727;SDS011;8984;49.268;12.302;2024-03-08T11:12:21;11.63;;;8.87;;
17727;SDS011;8984;49.268;12.302;2024-03-08T11:14:50;11.40;;;8.00;;
17727;SDS011;8984;49.268;12.302;2024-03-08T11:17:20;11.30;;;8.40;;
17727;SDS011;8984;49.268;12.302;2024-03-08T11:19:48;10.03;;;8.20;;
17727;SDS011;8984;49.268;12.302;2024-03-08T11:22:24;11.87;;;8.27;;
17727;SDS011;8984;49.268;12.302;2024-03-08T11:24:59;10.07;;;7.90;;
17727;SDS011;8984;49.268;12.302;2024-03-08T11:27:28;10.23;;;7.47;;
17727;SDS011;8984;49.268;12.302;2024-03-08T11:29:59;11.37;;;8.10;;
17727;SDS011;8984;49.268;12.302;2024-03-08T11:32:34;9.57;;;7.63;;
17727;SDS011;8984;49.268;12.302;2024-03-08T11:35:03;11.20;;;8.47;;
17727;SDS011;8984;49.268;12.302;2024-03-08T11:37:33;9.47;;;7.90;;
17727;SDS011;8984;49.268;12.302;2024-03-08T11:40:11;9.60;;;8.07;;
17727;SDS011;8984;49.268;12.302;2024-03-08T11:42:43;13.10;;;9.80;;
17727;SDS011;8984;49.268;12.302;2024-03-08T11:45:12;9.57;;;7.67;;
17727;SDS011;8984;49.268;12.302;2024-03-08T11:47:41;10.97;;;7.97;;
17727;SDS011;8984;49.268;12.302;2024-03-08T11:50:11;9.93;;;7.67;;
17727;SDS011;8984;49.268;12.302;2024-03-08T11:52:38;11.17;;;8.97;;
17727;SDS011;8984;49.268;12.302;2024-03-08T11:55:07;12.37;;;9.30;;
17727;SDS011;8984;49.268;12.302;2024-03-08T11:57:34;20.27;;;11.83;;
17727;SDS011;8984;49.268;12.302;2024-03-08T12:00:02;14.30;;;11.50;;
17727;SDS011;8984;49.268;12.302;2024-03-08T12:02:32;14.17;;;11.07;;
17727;SDS011;8984;49.268;12.302;2024-03-08T12:05:01;15.47;;;11.73;;
17727;SDS011;8984;49.268;12.302;2024-03-08T12:07:28;10.97;;;8.80;;
17727;SDS011;8984;49.268;12.302;2024-03-08T12:12:51;14.40;;;11.67;;
17727;SDS011;8984;49.268;12.302;2024-03-08T12:15:18;21.70;;;14.03;;
17727;SDS011;8984;49.268;12.302;2024-03-08T12:17:47;17.83;;;13.30;;
17727;SDS011;8984;49.268;12.302;2024-03-08T12:20:15;13.57;;;10.47;;
17727;SDS011;8984;49.268;12.302;2024-03-08T12:22:43;17.40;;;13.00;;
17727;SDS011;8984;49.268;12.302;2024-03-08T12:25:10;19.00;;;13.50;;
17727;SDS011;8984;49.268;12.302;2024-03-08T12:27:40;17.63;;;13.27;;
17727;SDS011;8984;49.268;12.302;2024-03-08T12:30:18;15.60;;;9.70;;
17727;SDS011;8984;49.268;12.302;2024-03-08T12:32:48;13.00;;;9.10;;
17727;SDS011;8984;49.268;12.302;2024-03-08T12:35:18;10.00;;;8.20;;
17727;SDS011;8984;49.268;12.302;2024-03-08T12:37:47;9.93;;;8.13;;
17727;SDS011;8984;49.268;12.302;2024-03-08T12:40:16;10.60;;;7.93;;
17727;SDS011;8984;49.268;12.302;2024-03-08T12:42:45;13.07;;;8.83;;
17727;SDS011;8984;49.268;12.302;2024-03-08T12:45:13;11.27;;;9.13;;
17727;SDS011;8984;49.268;12.302;2024-03-08T12:47:40;10.60;;;9.17;;
17727;SDS011;8984;49.268;12.302;2024-03-08T12:50:08;16.37;;;12.50;;
17727;SDS011;8984;49.268;12.302;2024-03-08T12:52:36;16.33;;;11.67;;
17727;SDS011;8984;49.268;12.302;2024-03-08T12:55:03;15.77;;;11.37;;
17727;SDS011;8984;49.268;12.302;2024-03-08T12:57:32;11.90;;;9.83;;
17727;SDS011;8984;49.268;12.302;2024-03-08T13:00:01;11.13;;;8.80;;
17727;SDS011;8984;49.268;12.302;2024-03-08T13:02:29;33.03;;;26.60;;
17727;SDS011;8984;49.268;12.302;2024-03-08T13:04:57;11.30;;;8.87;;
17727;SDS011;8984;49.268;12.302;2024-03-08T13:07:24;11.67;;;9.97;;
17727;SDS011;8984;49.268;12.302;2024-03-08T13:09:52;10.83;;;8.53;;
17727;SDS011;8984;49.268;12.302;2024-03-08T13:12:19;14.30;;;11.47;;
17727;SDS011;8984;49.268;12.302;2024-03-08T13:14:46;15.47;;;12.00;;
17727;SDS011;8984;49.268;12.302;2024-03-08T13:17:14;13.17;;;10.27;;
17727;SDS011;8984;49.268;12.302;2024-03-08T13:19:43;17.30;;;11.53;;
17727;SDS011;8984;49.268;12.302;2024-03-08T13:22:10;17.20;;;13.73;;
17727;SDS011;8984;49.268;12.302;2024-03-08T13:24:38;15.57;;;11.83;;
17727;SDS011;8984;49.268;12.302;2024-03-08T13:27:07;11.63;;;9.70;;
17727;SDS011;8984;49.268;12.302;2024-03-08T13:29:44;10.90;;;9.23;;
17727;SDS011;8984;49.268;12.302;2024-03-08T13:32:12;13.67;;;10.33;;
17727;SDS011;8984;49.268;12.302;2024-03-08T13:34:41;15.90;;;11.23;;
17727;SDS011;8984;49.268;12.302;2024-03-08T13:37:08;11.20;;;9.40;;
17727;SDS011;8984;49.268;12.302;2024-03-08T13:39:36;11.50;;;9.17;;
17727;SDS011;8984;49.268;12.302;2024-03-08T13:42:08;13.67;;;10.60;;
17727;SDS011;8984;49.268;12.302;2024-03-08T13:44:38;16.33;;;11.63;;
17727;SDS011;8984;49.268;12.302;2024-03-08T13:47:05;11.47;;;9.53;;
17727;SDS011;8984;49.268;12.302;2024-03-08T13:49:34;11.47;;;8.93;;
17727;SDS011;8984;49.268;12.302;2024-03-08T13:52:01;11.27;;;9.20;;
17727;SDS011;8984;49.268;12.302;2024-03-08T13:54:29;10.20;;;8.43;;
17727;SDS011;8984;49.268;12.302;2024-03-08T13:56:56;11.77;;;9.33;;
17727;SDS011;8984;49.268;12.302;2024-03-08T13:59:23;11.63;;;9.33;;
17727;SDS011;8984;49.268;12.302;2024-03-08T14:01:54;12.53;;;8.83;;
17727;SDS011;8984;49.268;12.302;2024-03-08T14:04:22;13.00;;;8.97;;
17727;SDS011;8984;49.268;12.302;2024-03-08T14:06:51;13.77;;;10.40;;
17727;SDS011;8984;49.268;12.302;2024-03-08T14:09:21;12.80;;;9.43;;
17727;SDS011;8984;49.268;12.302;2024-03-08T14:11:49;11.93;;;9.90;;
17727;SDS011;8984;49.268;12.302;2024-03-08T14:14:18;12.37;;;10.13;;
17727;SDS011;8984;49.268;12.302;2024-03-08T14:16:45;12.00;;;9.33;;
17727;SDS011;8984;49.268;12.302;2024-03-08T14:19:12;12.87;;;9.67;;
17727;SDS011;8984;49.268;12.302;2024-03-08T14:21:40;13.00;;;10.10;;
17727;SDS011;8984;49.268;12.302;2024-03-08T14:24:09;12.73;;;10.10;;
17727;SDS011;8984;49.268;12.302;2024-03-08T14:26:36;11.90;;;9.90;;
17727;SDS011;8984;49.268;12.302;2024-03-08T14:29:03;11.77;;;9.83;;
17727;SDS011;8984;49.268;12.302;2024-03-08T14:31:30;10.40;;;8.30;;
17727;SDS011;8984;49.268;12.302;2024-03-08T14:33:57;12.13;;;9.27;;
17727;SDS011;8984;49.268;12.302;2024-03-08T14:36:24;12.57;;;9.40;;
17727;SDS011;8984;49.268;12.302;2024-03-08T14:38:51;12.07;;;8.93;;
17727;SDS011;8984;49.268;12.302;2024-03-08T14:41:20;12.23;;;9.90;;
17727;SDS011;8984;49.268;12.302;2024-03-08T14:43:47;12.50;;;9.90;;